SHT15A EGJJ-EGLL
Flight info
| Callsign | SHT15A |
|---|---|
| Flight time | N/A |
| Altitude | 23000 |
| Route | ORIST L982 ROXOG |
| Aircraft | A320/M-SDE3FGHIRWY/LB1 |
Departure
| Time | 2026-05-05 15:13 |
|---|---|
| Airport | Jersey Airport (EGJJ) |
Arrival
| Time | N/A |
|---|---|
| Airport | London Heathrow Airport (EGLL) |
| Time | Latitude | Longitude | Altitude | Speed | Heading |
|---|---|---|---|---|---|
| 2026-05-05 14:59 | 49.20484 | -2.19843 | 281 ft | 0 kts | 350° |
| 2026-05-05 15:08 | 49.20469 | -2.19839 | 284 ft | 2 kts | 350° |
| 2026-05-05 15:08 | 49.20452 | -2.19835 | 280 ft | 2 kts | 350° |
| 2026-05-05 15:08 | 49.20438 | -2.19822 | 286 ft | 2 kts | 277° |
| 2026-05-05 15:08 | 49.20437 | -2.19813 | 289 ft | 0 kts | 253° |
| 2026-05-05 15:10 | 49.20437 | -2.19816 | 289 ft | 2 kts | 256° |
| 2026-05-05 15:10 | 49.20447 | -2.19902 | 280 ft | 9 kts | 326° |
| 2026-05-05 15:10 | 49.20509 | -2.19959 | 280 ft | 13 kts | 306° |
| 2026-05-05 15:10 | 49.20542 | -2.20230 | 280 ft | 28 kts | 294° |
| 2026-05-05 15:11 | 49.20597 | -2.20334 | 280 ft | 0 kts | 317° |
| 2026-05-05 15:11 | 49.20598 | -2.20369 | 280 ft | 12 kts | 261° |
| 2026-05-05 15:11 | 49.20595 | -2.20383 | 280 ft | 1 kts | 250° |
| 2026-05-05 15:11 | 49.20590 | -2.20442 | 282 ft | 17 kts | 277° |
| 2026-05-05 15:12 | 49.20646 | -2.20583 | 280 ft | 10 kts | 327° |
| 2026-05-05 15:12 | 49.20713 | -2.20542 | 279 ft | 22 kts | 62° |
| 2026-05-05 15:12 | 49.20768 | -2.19904 | 281 ft | 97 kts | 82° |
| 2026-05-05 15:12 | 49.20923 | -2.18502 | 289 ft | 157 kts | 73° |
| 2026-05-05 15:13 | 49.21115 | -2.16743 | 680 ft | 183 kts | 79° |
| 2026-05-05 15:13 | 49.21217 | -2.14748 | 1611 ft | 195 kts | 81° |
| 2026-05-05 15:13 | 49.21359 | -2.12582 | 2568 ft | 204 kts | 79° |
| 2026-05-05 15:13 | 49.21532 | -2.10424 | 3623 ft | 208 kts | 78° |
| 2026-05-05 15:14 | 49.21723 | -2.08196 | 4594 ft | 221 kts | 77° |
| 2026-05-05 15:14 | 49.22248 | -2.05602 | 4950 ft | 256 kts | 49° |
| 2026-05-05 15:14 | 49.23657 | -2.03989 | 5331 ft | 282 kts | 21° |
| 2026-05-05 15:14 | 49.25699 | -2.03299 | 5864 ft | 299 kts | 7° |
| 2026-05-05 15:15 | 49.27676 | -2.03213 | 7175 ft | 286 kts | 356° |
| 2026-05-05 15:15 | 49.29842 | -2.03489 | 8884 ft | 271 kts | 356° |
| 2026-05-05 15:15 | 49.31502 | -2.03693 | 9802 ft | 279 kts | 358° |
| 2026-05-05 15:15 | 49.33465 | -2.03821 | 10774 ft | 282 kts | 1° |
| 2026-05-05 15:16 | 49.35417 | -2.03856 | 11761 ft | 286 kts | 2° |
| 2026-05-05 15:16 | 49.37424 | -2.03820 | 12721 ft | 292 kts | 3° |
| 2026-05-05 15:16 | 49.39512 | -2.03730 | 13702 ft | 297 kts | 3° |
| 2026-05-05 15:16 | 49.41574 | -2.03629 | 14586 ft | 301 kts | 4° |
| 2026-05-05 15:17 | 49.43693 | -2.03509 | 15502 ft | 305 kts | 4° |
| 2026-05-05 15:17 | 49.45833 | -2.03383 | 16387 ft | 310 kts | 5° |
| 2026-05-05 15:17 | 49.47998 | -2.03265 | 17279 ft | 314 kts | 4° |
| 2026-05-05 15:17 | 49.50181 | -2.03147 | 18194 ft | 318 kts | 5° |
| 2026-05-05 15:18 | 49.52451 | -2.03020 | 18966 ft | 322 kts | 3° |
| 2026-05-05 15:18 | 49.54658 | -2.02906 | 19707 ft | 326 kts | 3° |
| 2026-05-05 15:18 | 49.56942 | -2.02787 | 20483 ft | 330 kts | 3° |
| 2026-05-05 15:18 | 49.59252 | -2.02668 | 21214 ft | 334 kts | 3° |
| 2026-05-05 15:19 | 49.61588 | -2.02551 | 21983 ft | 338 kts | 3° |
| 2026-05-05 15:19 | 49.63947 | -2.02427 | 22700 ft | 343 kts | 3° |
| 2026-05-05 15:19 | 49.66398 | -2.02297 | 22927 ft | 362 kts | 2° |
| 2026-05-05 15:19 | 49.69015 | -2.02162 | 22976 ft | 386 kts | 3° |
| 2026-05-05 15:20 | 49.71753 | -2.02019 | 22975 ft | 409 kts | 2° |
| 2026-05-05 15:20 | 49.74678 | -2.01862 | 22971 ft | 431 kts | 2° |
| 2026-05-05 15:20 | 49.77734 | -2.01303 | 22971 ft | 450 kts | 12° |
| 2026-05-05 15:20 | 49.80793 | -1.99844 | 22968 ft | 469 kts | 23° |
| 2026-05-05 15:21 | 49.83718 | -1.97618 | 23000 ft | 483 kts | 27° |
| 2026-05-05 15:21 | 49.86664 | -1.95263 | 24093 ft | 461 kts | 27° |
| 2026-05-05 15:21 | 49.89574 | -1.92918 | 24561 ft | 438 kts | 28° |
| 2026-05-05 15:21 | 49.91944 | -1.90884 | 25285 ft | 420 kts | 29° |
| 2026-05-05 15:22 | 49.94620 | -1.88666 | 25986 ft | 405 kts | 28° |
| 2026-05-05 15:22 | 49.97177 | -1.86623 | 24972 ft | 405 kts | 27° |
| 2026-05-05 15:22 | 49.99680 | -1.84628 | 23567 ft | 412 kts | 27° |
| 2026-05-05 15:22 | 50.02263 | -1.82611 | 22090 ft | 415 kts | 26° |
| 2026-05-05 15:23 | 50.04793 | -1.80662 | 21620 ft | 394 kts | 26° |
| 2026-05-05 15:23 | 50.07107 | -1.78870 | 21518 ft | 368 kts | 26° |
| 2026-05-05 15:23 | 50.09293 | -1.77162 | 21407 ft | 345 kts | 27° |
| 2026-05-05 15:23 | 50.11473 | -1.75396 | 21328 ft | 347 kts | 31° |
| 2026-05-05 15:24 | 50.13510 | -1.73258 | 21259 ft | 356 kts | 38° |
| 2026-05-05 15:24 | 50.14580 | -1.71852 | 21256 ft | 366 kts | 43° |
| 2026-05-05 15:24 | 50.15429 | -1.70612 | 21200 ft | 367 kts | 43° |